createdAt,value
2017-04-15T00:00:02.138Z,40.83
2017-04-15T00:01:01.979Z,42.95
2017-04-15T00:02:01.075Z,38.50
2017-04-15T00:03:00.126Z,39.83
2017-04-15T00:03:59.210Z,37.88
2017-04-15T00:04:58.287Z,40.53
2017-04-15T00:05:58.240Z,42.67
2017-04-15T00:06:57.318Z,38.63
2017-04-15T00:07:56.402Z,41.17
2017-04-15T00:08:55.499Z,40.78
2017-04-15T00:09:54.604Z,40.45
2017-04-15T00:10:53.667Z,47.12
2017-04-15T00:11:52.750Z,44.38
2017-04-15T00:12:51.832Z,43.12
2017-04-15T00:13:50.898Z,45.77
2017-04-15T00:14:49.967Z,42.60
2017-04-15T00:15:49.035Z,44.15
2017-04-15T00:16:49.114Z,47.33
2017-04-15T00:17:48.175Z,48.13
2017-04-15T00:18:47.252Z,50.30
2017-04-15T00:19:46.346Z,49.38
2017-04-15T00:20:45.430Z,52.07
2017-04-15T00:21:44.494Z,52.43
2017-04-15T00:22:43.598Z,54.53
2017-04-15T00:23:42.719Z,50.85
2017-04-15T00:24:41.777Z,51.23
2017-04-15T00:25:40.851Z,49.42
2017-04-15T00:26:39.942Z,45.37
2017-04-15T00:27:39.251Z,44.57
2017-04-15T00:28:38.319Z,48.35
2017-04-15T00:29:37.378Z,46.25
2017-04-15T00:30:36.447Z,49.78
2017-04-15T00:31:35.598Z,41.67
2017-04-15T00:32:34.669Z,45.37
2017-04-15T00:33:33.778Z,44.78
2017-04-15T00:34:32.855Z,49.28
2017-04-15T00:35:31.910Z,50.48
2017-04-15T00:36:30.983Z,53.02
2017-04-15T00:37:30.040Z,57.87
2017-04-15T00:38:29.270Z,44.17
2017-04-15T00:39:28.358Z,45.47
2017-04-15T00:40:27.418Z,43.87
2017-04-15T00:41:26.478Z,42.58
2017-04-15T00:42:25.714Z,42.47
2017-04-15T00:43:24.767Z,45.73
2017-04-15T00:44:23.853Z,47.35
2017-04-15T00:45:22.911Z,45.75
2017-04-15T00:46:22.711Z,52.25
2017-04-15T00:47:21.758Z,48.65
2017-04-15T00:48:20.831Z,54.05
2017-04-15T00:49:20.135Z,50.23
2017-04-15T00:50:19.199Z,49.12
2017-04-15T00:51:18.270Z,56.68
2017-04-15T00:52:17.338Z,49.78
2017-04-15T00:53:17.177Z,60.65
2017-04-15T00:54:16.239Z,55.95
2017-04-15T00:55:15.318Z,55.83
2017-04-15T00:56:14.395Z,62.93
2017-04-15T00:57:14.205Z,62.82
2017-04-15T00:58:13.278Z,58.98
2017-04-15T00:59:13.085Z,66.38
2017-04-15T01:00:12.542Z,53.55
2017-04-15T01:01:11.582Z,52.97
2017-04-15T01:02:10.634Z,50.67
2017-04-15T01:03:09.706Z,60.83
2017-04-15T01:04:08.778Z,50.83
2017-04-15T01:05:07.855Z,54.65
2017-04-15T01:06:06.938Z,55.60
2017-04-15T01:07:06.006Z,58.75
2017-04-15T01:08:05.065Z,59.10
2017-04-15T01:09:04.239Z,61.33
2017-04-15T01:10:03.346Z,57.18
2017-04-15T01:11:02.571Z,55.07
2017-04-15T01:12:01.637Z,58.53
2017-04-15T01:13:00.702Z,54.30
2017-04-15T01:14:00.047Z,51.55
2017-04-15T01:14:59.863Z,60.18
2017-04-15T01:15:58.927Z,51.27
2017-04-15T01:16:58.155Z,52.50
2017-04-15T01:17:57.210Z,50.33
2017-04-15T01:18:56.270Z,56.07
2017-04-15T01:19:55.322Z,55.78
2017-04-15T01:20:54.389Z,53.88
2017-04-15T01:21:53.620Z,56.18
2017-04-15T01:22:52.666Z,57.42
2017-04-15T01:23:51.770Z,63.72
2017-04-15T01:24:50.837Z,56.38
2017-04-15T01:25:49.897Z,57.92
2017-04-15T01:26:49.703Z,49.72
2017-04-15T01:27:48.907Z,57.78
2017-04-15T01:28:47.978Z,64.95
2017-04-15T01:29:47.766Z,52.55
2017-04-15T01:30:46.883Z,57.87
2017-04-15T01:31:45.942Z,62.05
2017-04-15T01:32:44.997Z,61.90
2017-04-15T01:33:44.076Z,60.52
2017-04-15T01:34:43.906Z,60.45
2017-04-15T01:35:42.978Z,59.40
2017-04-15T01:36:42.082Z,57.55
2017-04-15T01:37:41.136Z,60.42
2017-04-15T01:38:40.195Z,60.37
2017-04-15T01:39:39.270Z,67.03
2017-04-15T01:40:38.350Z,63.00
2017-04-15T01:41:37.430Z,63.60
2017-04-15T01:42:36.481Z,63.93
2017-04-15T01:43:35.569Z,53.68
2017-04-15T01:44:34.662Z,55.97
2017-04-15T01:45:33.746Z,61.98
2017-04-15T01:46:32.821Z,59.02
2017-04-15T01:47:31.883Z,62.60
2017-04-15T01:48:31.672Z,59.53
2017-04-15T01:49:30.749Z,57.35
2017-04-15T01:50:30.064Z,64.03
2017-04-15T01:51:29.109Z,62.63
2017-04-15T01:52:28.162Z,67.68
2017-04-15T01:53:27.963Z,64.62
2017-04-15T01:54:27.756Z,65.72
2017-04-15T01:55:26.826Z,56.55
2017-04-15T01:56:25.910Z,57.27
2017-04-15T01:57:24.974Z,56.87
2017-04-15T01:58:24.067Z,50.72
2017-04-15T01:59:23.126Z,53.48
2017-04-15T02:00:22.185Z,49.42
2017-04-15T02:01:21.630Z,52.43
2017-04-15T02:02:20.862Z,56.10
2017-04-15T02:03:20.658Z,53.02
2017-04-15T02:04:19.723Z,57.98
2017-04-15T02:05:18.778Z,56.90
2017-04-15T02:06:17.842Z,52.58
2017-04-15T02:07:16.930Z,50.68
2017-04-15T02:08:15.985Z,52.40
2017-04-15T02:09:15.807Z,51.63
2017-04-15T02:10:14.883Z,54.78
2017-04-15T02:11:13.934Z,48.82
2017-04-15T02:12:13.352Z,49.13
2017-04-15T02:13:12.398Z,51.25
2017-04-15T02:14:11.446Z,49.63
2017-04-15T02:15:10.533Z,52.60
2017-04-15T02:16:09.593Z,54.40
2017-04-15T02:17:09.406Z,57.20
2017-04-15T02:18:08.543Z,61.18
2017-04-15T02:19:07.610Z,59.02
2017-04-15T02:20:06.673Z,50.15
2017-04-15T02:21:05.742Z,49.47
2017-04-15T02:22:04.823Z,53.85
2017-04-15T02:23:04.798Z,43.87
2017-04-15T02:24:04.622Z,50.40
2017-04-15T02:25:03.782Z,48.77
2017-04-15T02:26:02.838Z,47.42
2017-04-15T02:27:01.910Z,51.48
2017-04-15T02:28:01.007Z,49.90
2017-04-15T02:29:00.094Z,56.98
2017-04-15T02:29:59.170Z,51.05
2017-04-15T02:30:58.228Z,49.03
2017-04-15T02:31:57.317Z,47.58
2017-04-15T02:32:56.391Z,49.80
2017-04-15T02:33:55.603Z,56.72
2017-04-15T02:34:54.707Z,47.35
2017-04-15T02:35:53.790Z,52.20
2017-04-15T02:36:52.874Z,46.08
2017-04-15T02:37:51.982Z,49.40
2017-04-15T02:38:51.046Z,48.75
2017-04-15T02:39:50.118Z,51.47
2017-04-15T02:40:49.186Z,49.93
2017-04-15T02:41:48.262Z,48.23
2017-04-15T02:42:47.655Z,52.72
2017-04-15T02:43:46.743Z,50.27
2017-04-15T02:44:45.949Z,57.72
2017-04-15T02:45:45.014Z,53.80
2017-04-15T02:46:44.099Z,56.32
2017-04-15T02:47:43.165Z,49.50
2017-04-15T02:48:42.986Z,51.88
2017-04-15T02:49:42.043Z,64.02
2017-04-15T02:50:41.110Z,61.77
2017-04-15T02:51:40.170Z,61.60
2017-04-15T02:52:39.226Z,65.07
2017-04-15T02:53:38.294Z,57.07
2017-04-15T02:54:38.081Z,60.20
2017-04-15T02:55:37.550Z,54.40
2017-04-15T02:56:36.619Z,56.57
2017-04-15T02:57:35.675Z,58.47
2017-04-15T02:58:34.730Z,54.92
2017-04-15T02:59:33.782Z,58.87
2017-04-15T03:00:32.876Z,63.27
2017-04-15T03:01:32.158Z,67.05
2017-04-15T03:02:31.224Z,59.17
2017-04-15T03:03:30.290Z,61.70
2017-04-15T03:04:29.358Z,69.30
2017-04-15T03:05:29.157Z,67.78
2017-04-15T03:06:28.243Z,62.28
2017-04-15T03:07:27.450Z,66.05
2017-04-15T03:08:26.509Z,57.37
2017-04-15T03:09:26.302Z,67.75
2017-04-15T03:10:25.351Z,64.83
2017-04-15T03:11:24.411Z,66.68
2017-04-15T03:12:23.469Z,72.50
2017-04-15T03:13:22.534Z,66.88
2017-04-15T03:14:21.618Z,65.67
2017-04-15T03:15:20.667Z,61.73
2017-04-15T03:16:19.713Z,55.23
2017-04-15T03:17:18.779Z,55.63
2017-04-15T03:18:18.613Z,59.80
2017-04-15T03:19:17.731Z,54.50
2017-04-15T03:20:16.806Z,56.27
2017-04-15T03:21:15.891Z,53.53
2017-04-15T03:22:14.982Z,61.07
2017-04-15T03:23:14.033Z,66.10
2017-04-15T03:24:13.371Z,57.22
2017-04-15T03:25:12.423Z,64.82
2017-04-15T03:26:11.483Z,77.00
2017-04-15T03:27:10.570Z,69.07
2017-04-15T03:28:09.615Z,68.37
2017-04-15T03:29:08.694Z,73.97
2017-04-15T03:30:07.827Z,63.85
2017-04-15T03:31:07.130Z,68.90
2017-04-15T03:32:06.219Z,75.32
2017-04-15T03:33:05.282Z,71.47
2017-04-15T03:34:04.373Z,71.95
2017-04-15T03:35:03.703Z,71.68
2017-04-15T03:36:02.767Z,67.98
2017-04-15T03:37:01.828Z,61.77
2017-04-15T03:38:01.379Z,56.10
2017-04-15T03:39:00.434Z,64.92
2017-04-15T03:39:59.491Z,66.03
2017-04-15T03:40:58.581Z,64.95
2017-04-15T03:41:57.695Z,54.93
2017-04-15T03:42:56.745Z,62.53
2017-04-15T03:43:56.546Z,64.07
2017-04-15T03:44:56.450Z,64.07
2017-04-15T03:45:55.668Z,60.58
2017-04-15T03:46:54.750Z,65.18
2017-04-15T03:47:53.838Z,52.30
2017-04-15T03:48:52.902Z,60.32
2017-04-15T03:49:51.967Z,53.23
2017-04-15T03:50:51.778Z,59.40
2017-04-15T03:51:50.893Z,59.53
2017-04-15T03:52:49.950Z,55.95
2017-04-15T03:53:49.022Z,59.88
2017-04-15T03:54:48.079Z,54.77
2017-04-15T03:55:47.134Z,53.47
2017-04-15T03:56:46.363Z,54.67
2017-04-15T03:57:45.435Z,56.50
2017-04-15T03:58:44.487Z,51.32
2017-04-15T03:59:43.546Z,59.57
2017-04-15T04:00:42.605Z,67.05
2017-04-15T04:01:41.669Z,62.90
2017-04-15T04:02:41.486Z,50.03
2017-04-15T04:03:40.566Z,59.58
2017-04-15T04:04:39.654Z,55.18
2017-04-15T04:05:38.723Z,58.42
2017-04-15T04:06:37.810Z,61.12
2017-04-15T04:07:37.407Z,55.67
2017-04-15T04:08:36.469Z,62.30
2017-04-15T04:09:35.526Z,62.55
2017-04-15T04:10:34.599Z,58.35
2017-04-15T04:11:34.401Z,59.98
2017-04-15T04:12:34.215Z,56.58
2017-04-15T04:13:33.329Z,59.63
2017-04-15T04:14:32.396Z,58.60
2017-04-15T04:15:31.477Z,53.32
2017-04-15T04:16:30.543Z,57.95
2017-04-15T04:17:29.627Z,57.80
2017-04-15T04:18:28.830Z,56.83
2017-04-15T04:19:27.903Z,62.42
2017-04-15T04:20:26.970Z,54.20
2017-04-15T04:21:26.034Z,59.93
2017-04-15T04:22:25.139Z,56.82
2017-04-15T04:23:24.203Z,54.00
2017-04-15T04:24:23.295Z,58.23
2017-04-15T04:25:22.350Z,55.00
2017-04-15T04:26:21.410Z,58.35
2017-04-15T04:27:20.458Z,57.73
2017-04-15T04:28:19.523Z,57.77
2017-04-15T04:29:18.766Z,56.78
2017-04-15T04:30:17.822Z,58.65
2017-04-15T04:31:16.885Z,61.83
2017-04-15T04:32:15.954Z,57.23
2017-04-15T04:33:15.043Z,61.58
2017-04-15T04:34:14.099Z,54.88
2017-04-15T04:35:13.210Z,60.57
2017-04-15T04:36:12.322Z,64.85
2017-04-15T04:37:11.381Z,64.40
2017-04-15T04:38:10.443Z,67.10
2017-04-15T04:39:09.538Z,55.57
2017-04-15T04:40:08.858Z,63.90
2017-04-15T04:41:07.926Z,57.02
2017-04-15T04:42:07.032Z,54.65
2017-04-15T04:43:06.095Z,62.82
2017-04-15T04:44:05.418Z,69.28
2017-04-15T04:45:04.470Z,57.18
2017-04-15T04:46:03.568Z,68.17
2017-04-15T04:47:02.642Z,57.53
2017-04-15T04:48:01.745Z,60.70
2017-04-15T04:49:00.829Z,58.38
2017-04-15T04:49:59.894Z,60.10
2017-04-15T04:50:59.102Z,55.77
2017-04-15T04:51:58.170Z,59.02
2017-04-15T04:52:57.227Z,64.42
2017-04-15T04:53:56.306Z,62.30
2017-04-15T04:54:55.462Z,65.45
2017-04-15T04:55:55.479Z,64.17
2017-04-15T04:56:55.318Z,66.17
2017-04-15T04:57:54.395Z,62.28
2017-04-15T04:58:53.481Z,67.18
2017-04-15T04:59:52.586Z,61.13
2017-04-15T05:00:52.394Z,65.67
2017-04-15T05:01:51.857Z,59.82
2017-04-15T05:02:50.962Z,62.67
2017-04-15T05:03:50.027Z,58.67
2017-04-15T05:04:49.092Z,59.53
2017-04-15T05:05:48.148Z,56.92
2017-04-15T05:06:47.218Z,56.57
2017-04-15T05:07:46.497Z,70.38
2017-04-15T05:08:45.564Z,63.15
2017-04-15T05:09:44.630Z,61.78
2017-04-15T05:10:43.714Z,58.47
2017-04-15T05:11:42.778Z,58.32
2017-04-15T05:12:41.847Z,51.23
2017-04-15T05:13:40.931Z,63.07
2017-04-15T05:14:40.105Z,63.12
2017-04-15T05:15:39.545Z,62.90
2017-04-15T05:16:38.603Z,56.02
2017-04-15T05:17:37.661Z,59.67
2017-04-15T05:18:37.059Z,56.72
2017-04-15T05:19:36.194Z,54.40
2017-04-15T05:20:35.250Z,60.83
2017-04-15T05:21:35.050Z,59.00
2017-04-15T05:22:34.182Z,54.67
2017-04-15T05:23:33.234Z,56.60
2017-04-15T05:24:32.325Z,54.87
2017-04-15T05:25:31.386Z,58.40
2017-04-15T05:26:30.453Z,58.45
2017-04-15T05:27:29.529Z,61.15
2017-04-15T05:28:28.597Z,60.72
2017-04-15T05:29:27.843Z,64.62
2017-04-15T05:30:27.637Z,57.33
2017-04-15T05:31:26.714Z,58.63
2017-04-15T05:32:25.786Z,67.45
2017-04-15T05:33:24.874Z,70.23
2017-04-15T05:34:23.933Z,67.25
2017-04-15T05:35:23.014Z,67.72
2017-04-15T05:36:22.110Z,63.10
2017-04-15T05:37:21.168Z,51.42
2017-04-15T05:38:20.242Z,60.83
2017-04-15T05:39:19.295Z,56.53
2017-04-15T05:40:19.262Z,55.07
2017-04-15T05:41:18.338Z,60.58
2017-04-15T05:42:17.407Z,58.72
2017-04-15T05:43:16.463Z,55.35
2017-04-15T05:44:16.306Z,53.12
2017-04-15T05:45:15.369Z,51.35
2017-04-15T05:46:14.451Z,59.55
2017-04-15T05:47:13.519Z,51.93
2017-04-15T05:48:12.594Z,47.87
2017-04-15T05:49:11.679Z,50.75
2017-04-15T05:50:10.754Z,49.72
2017-04-15T05:51:10.851Z,55.75
2017-04-15T05:52:09.946Z,48.67
2017-04-15T05:53:09.019Z,51.88
2017-04-15T05:54:08.111Z,54.32
2017-04-15T05:55:07.168Z,53.13
2017-04-15T05:56:06.243Z,60.12
2017-04-15T05:57:05.328Z,57.28
2017-04-15T05:58:04.386Z,55.77
2017-04-15T05:59:03.459Z,55.45
2017-04-15T06:00:02.542Z,59.40
2017-04-15T06:01:02.363Z,54.68
2017-04-15T06:02:08.239Z,60.53
2017-04-15T06:03:07.291Z,62.28
2017-04-15T06:04:06.348Z,56.47
2017-04-15T06:05:05.519Z,59.75
2017-04-15T06:06:04.603Z,57.58
2017-04-15T06:07:03.684Z,62.20
2017-04-15T06:08:03.041Z,55.37
2017-04-15T06:09:02.121Z,50.83
2017-04-15T06:10:01.188Z,54.73
2017-04-15T06:11:00.262Z,53.65
2017-04-15T06:12:00.304Z,54.70
2017-04-15T06:12:59.630Z,50.83
2017-04-15T06:13:58.682Z,48.20
2017-04-15T06:14:57.747Z,52.28
2017-04-15T06:15:57.138Z,45.02
2017-04-15T06:16:56.246Z,56.68
2017-04-15T06:17:55.315Z,51.38
2017-04-15T06:18:54.410Z,53.12
2017-04-15T06:19:53.477Z,53.05
2017-04-15T06:20:52.552Z,52.78
2017-04-15T06:21:52.362Z,55.15
2017-04-15T06:22:51.434Z,50.27
2017-04-15T06:23:50.816Z,49.27
2017-04-15T06:24:50.988Z,48.92
2017-04-15T06:25:50.063Z,49.43
2017-04-15T06:26:49.126Z,49.50
2017-04-15T06:27:48.194Z,47.02
2017-04-15T06:28:47.255Z,48.97
2017-04-15T06:29:46.508Z,50.67
2017-04-15T06:30:45.652Z,47.32
2017-04-15T06:31:44.721Z,49.25
2017-04-15T06:32:43.799Z,47.62
2017-04-15T06:33:42.906Z,46.97
2017-04-15T06:34:42.285Z,52.98
2017-04-15T06:35:41.366Z,53.30
2017-04-15T06:36:40.446Z,54.25
2017-04-15T06:37:39.515Z,58.65
2017-04-15T06:38:38.646Z,54.13
2017-04-15T06:39:37.743Z,57.90
2017-04-15T06:40:37.071Z,51.20
2017-04-15T06:41:36.161Z,54.80
2017-04-15T06:42:35.247Z,59.85
2017-04-15T06:43:34.337Z,57.12
2017-04-15T06:44:33.459Z,57.68
2017-04-15T06:45:33.271Z,48.18
2017-04-15T06:46:32.418Z,56.22
2017-04-15T06:47:31.687Z,60.57
2017-04-15T06:48:30.807Z,58.03
2017-04-15T06:49:30.661Z,62.55
2017-04-15T06:50:29.719Z,54.42
2017-04-15T06:51:29.374Z,52.50
2017-04-15T06:52:28.445Z,59.78
2017-04-15T06:53:27.518Z,55.62
2017-04-15T06:54:26.603Z,57.75
2017-04-15T06:55:25.666Z,57.78
2017-04-15T06:56:24.758Z,53.42
2017-04-15T06:57:23.876Z,50.87
2017-04-15T06:58:22.961Z,57.27
2017-04-15T06:59:22.072Z,51.97
2017-04-15T07:00:21.175Z,52.32
2017-04-15T07:01:20.254Z,58.73
2017-04-15T07:02:20.230Z,46.80
2017-04-15T07:03:19.332Z,53.12
2017-04-15T07:04:18.748Z,53.72
2017-04-15T07:05:18.261Z,57.08
2017-04-15T07:06:17.384Z,60.27
2017-04-15T07:07:16.459Z,55.80
2017-04-15T07:08:15.559Z,53.05
2017-04-15T07:09:14.650Z,55.82
2017-04-15T07:10:13.738Z,52.73
2017-04-15T07:11:13.569Z,56.70
2017-04-15T07:12:19.569Z,51.07
2017-04-15T07:13:18.855Z,48.93
2017-04-15T07:14:17.934Z,52.95
2017-04-15T07:15:17.042Z,47.05
2017-04-15T07:16:16.108Z,54.38
2017-04-15T07:17:15.190Z,51.70
2017-04-15T07:18:14.287Z,53.92
2017-04-15T07:19:13.443Z,54.68
2017-04-15T07:20:12.521Z,53.38
2017-04-15T07:21:11.611Z,47.17
2017-04-15T07:22:10.752Z,47.48
2017-04-15T07:23:09.843Z,50.98
2017-04-15T07:24:09.520Z,54.13
2017-04-15T07:25:08.631Z,47.80
2017-04-15T07:26:08.470Z,47.40
2017-04-15T07:27:07.554Z,45.95
2017-04-15T07:28:06.638Z,48.18
2017-04-15T07:29:05.736Z,53.93
2017-04-15T07:30:04.848Z,52.45
2017-04-15T07:31:04.176Z,50.43
2017-04-15T07:32:03.624Z,55.23
2017-04-15T07:33:02.750Z,59.17
2017-04-15T07:34:01.871Z,61.42
2017-04-15T07:35:01.394Z,56.27
2017-04-15T07:36:00.859Z,59.27
2017-04-15T07:36:59.957Z,53.98
2017-04-15T07:37:59.051Z,55.38
2017-04-15T07:38:58.906Z,51.85
2017-04-15T07:39:58.006Z,51.22
2017-04-15T07:40:57.339Z,54.15
2017-04-15T07:41:56.417Z,47.48
2017-04-15T07:42:55.511Z,49.72
2017-04-15T07:43:54.570Z,54.15
2017-04-15T07:44:53.678Z,51.40
2017-04-15T07:45:52.758Z,49.67
2017-04-15T07:46:51.860Z,51.35
2017-04-15T07:47:50.971Z,52.20
2017-04-15T07:48:50.772Z,50.03
2017-04-15T07:49:49.851Z,52.75
2017-04-15T07:50:49.666Z,61.35
2017-04-15T07:51:48.807Z,63.43
2017-04-15T07:52:47.922Z,62.17
2017-04-15T07:53:47.739Z,62.07
2017-04-15T07:54:46.822Z,61.38
2017-04-15T07:55:45.902Z,61.85
2017-04-15T07:56:45.218Z,58.17
2017-04-15T07:57:44.750Z,56.77
2017-04-15T07:58:43.832Z,54.83
2017-04-15T07:59:42.906Z,54.73
2017-04-15T08:00:42.023Z,59.37
2017-04-15T08:01:41.865Z,61.25
2017-04-15T08:02:40.935Z,59.92
2017-04-15T08:03:40.040Z,51.45
2017-04-15T08:04:39.145Z,64.25
2017-04-15T08:05:38.535Z,65.92
2017-04-15T08:06:37.610Z,60.80
2017-04-15T08:07:36.707Z,62.98
2017-04-15T08:08:36.028Z,54.03
2017-04-15T08:09:35.859Z,58.28
2017-04-15T08:10:34.942Z,58.55
2017-04-15T08:11:34.070Z,67.20
2017-04-15T08:12:33.154Z,57.75
2017-04-15T08:13:32.248Z,59.27
2017-04-15T08:14:31.347Z,61.15
2017-04-15T08:15:30.444Z,62.85
2017-04-15T08:16:29.534Z,57.95
2017-04-15T08:17:28.635Z,59.50
2017-04-15T08:18:27.771Z,56.53
2017-04-15T08:19:27.017Z,55.03
2017-04-15T08:20:26.110Z,50.12
2017-04-15T08:21:25.195Z,53.02
2017-04-15T08:22:24.282Z,62.88
2017-04-15T08:23:23.430Z,58.98
2017-04-15T08:24:22.519Z,57.75
2017-04-15T08:25:21.654Z,62.10
2017-04-15T08:26:20.758Z,54.58
2017-04-15T08:27:19.882Z,56.12
2017-04-15T08:28:19.735Z,55.58
2017-04-15T08:29:18.865Z,58.17
2017-04-15T08:30:18.875Z,58.12
2017-04-15T08:31:18.031Z,54.73
2017-04-15T08:32:17.124Z,50.80
2017-04-15T08:33:16.197Z,52.97
2017-04-15T08:34:15.290Z,51.97
2017-04-15T08:35:14.370Z,64.20
2017-04-15T08:36:13.762Z,60.37
2017-04-15T08:37:12.862Z,62.03
2017-04-15T08:38:11.961Z,53.02
2017-04-15T08:39:11.802Z,63.45
2017-04-15T08:40:10.911Z,58.58
2017-04-15T08:41:10.142Z,56.92
2017-04-15T08:42:09.978Z,68.65
2017-04-15T08:43:09.082Z,59.18
2017-04-15T08:44:08.164Z,57.60
2017-04-15T08:45:07.270Z,45.03
2017-04-15T08:46:06.355Z,50.93
2017-04-15T08:47:05.470Z,53.45
2017-04-15T08:48:05.311Z,51.77
2017-04-15T08:49:04.435Z,47.88
2017-04-15T08:50:03.594Z,61.37
2017-04-15T08:51:02.706Z,51.18
2017-04-15T08:52:01.950Z,48.53
2017-04-15T08:53:01.042Z,53.75
2017-04-15T08:54:00.131Z,56.28
2017-04-15T08:54:59.250Z,49.07
2017-04-15T08:55:58.359Z,48.88
2017-04-15T08:56:57.451Z,43.77
2017-04-15T08:57:56.894Z,50.35
2017-04-15T08:58:55.985Z,52.30
2017-04-15T08:59:55.083Z,47.62
2017-04-15T09:00:54.169Z,49.98
2017-04-15T09:01:53.255Z,49.67
2017-04-15T09:02:52.514Z,45.70
2017-04-15T09:03:51.632Z,47.85
2017-04-15T09:04:50.702Z,46.08
2017-04-15T09:05:49.783Z,43.47
2017-04-15T09:06:48.870Z,48.17
2017-04-15T09:07:47.948Z,46.98
2017-04-15T09:08:47.063Z,44.12
2017-04-15T09:09:46.174Z,46.07
2017-04-15T09:10:45.570Z,43.58
2017-04-15T09:11:44.697Z,44.03
2017-04-15T09:12:43.787Z,47.07
2017-04-15T09:13:43.096Z,41.40
2017-04-15T09:14:42.210Z,39.77
2017-04-15T09:15:42.141Z,38.80
2017-04-15T09:16:41.240Z,41.83
2017-04-15T09:17:40.619Z,41.90
2017-04-15T09:18:39.733Z,37.20
2017-04-15T09:19:38.844Z,35.98
2017-04-15T09:20:37.951Z,36.67
2017-04-15T09:21:37.798Z,41.78
2017-04-15T09:22:36.897Z,42.37
2017-04-15T09:23:35.978Z,39.38
2017-04-15T09:24:35.231Z,39.10
2017-04-15T09:25:34.338Z,37.43
2017-04-15T09:26:33.460Z,33.32
2017-04-15T09:27:32.559Z,39.65
2017-04-15T09:28:32.717Z,39.40
2017-04-15T09:29:31.822Z,36.57
2017-04-15T09:30:31.195Z,40.50
2017-04-15T09:31:30.303Z,39.90
2017-04-15T09:32:29.507Z,41.52
2017-04-15T09:33:28.594Z,37.07
2017-04-15T09:34:27.695Z,32.35
2017-04-15T09:35:27.295Z,35.85
2017-04-15T09:36:26.421Z,35.72
2017-04-15T09:37:25.527Z,37.48
2017-04-15T09:38:24.615Z,36.85
2017-04-15T09:39:23.704Z,42.77
2017-04-15T09:40:22.798Z,37.25
2017-04-15T09:41:22.030Z,34.12
2017-04-15T09:42:21.114Z,33.68
2017-04-15T09:43:20.218Z,33.55
2017-04-15T09:44:19.331Z,28.62
2017-04-15T09:45:18.418Z,27.77
2017-04-15T09:46:17.550Z,27.87
2017-04-15T09:47:16.794Z,25.58
2017-04-15T09:48:15.867Z,26.30
2017-04-15T09:49:14.960Z,30.13
2017-04-15T09:50:14.079Z,32.87
2017-04-15T09:51:13.942Z,37.07
2017-04-15T09:52:13.063Z,36.38
2017-04-15T09:53:12.151Z,42.60
2017-04-15T09:54:11.230Z,44.57
2017-04-15T09:55:10.317Z,38.87
2017-04-15T09:56:09.453Z,51.40
2017-04-15T09:57:08.578Z,39.92
2017-04-15T09:58:07.671Z,38.48
2017-04-15T09:59:06.783Z,42.05
2017-04-15T10:00:05.893Z,35.77
2017-04-15T10:01:05.135Z,32.08
2017-04-15T10:02:04.243Z,29.90
2017-04-15T10:03:03.316Z,33.73
2017-04-15T10:04:02.559Z,37.68
2017-04-15T10:05:01.670Z,40.87
2017-04-15T10:06:00.748Z,46.12
2017-04-15T10:06:59.822Z,36.28
2017-04-15T10:07:58.909Z,35.83
2017-04-15T10:08:57.979Z,40.15
2017-04-15T10:09:57.846Z,34.65
2017-04-15T10:10:56.934Z,34.28
2017-04-15T10:11:56.026Z,36.50
2017-04-15T10:12:55.320Z,41.37
2017-04-15T10:13:54.397Z,41.55
2017-04-15T10:14:53.636Z,46.67
2017-04-15T10:15:52.722Z,47.25
2017-04-15T10:16:51.822Z,46.17
2017-04-15T10:17:50.948Z,56.77
2017-04-15T10:18:50.058Z,55.67
2017-04-15T10:20:55.831Z,44.70
2017-04-15T10:21:55.163Z,43.40
2017-04-15T10:22:54.256Z,47.97
2017-04-15T10:23:53.370Z,46.75
2017-04-15T10:24:52.448Z,42.28
2017-04-15T10:25:51.960Z,46.95
2017-04-15T10:26:51.103Z,40.93
2017-04-15T10:27:50.304Z,39.85
2017-04-15T10:28:49.399Z,54.47
2017-04-15T10:29:48.511Z,52.22
2017-04-15T10:30:47.584Z,47.38
2017-04-15T10:31:46.668Z,46.80
2017-04-15T10:32:45.754Z,40.30
2017-04-15T10:33:44.839Z,57.67
2017-04-15T10:34:43.924Z,51.63
2017-04-15T10:35:43.006Z,50.50
2017-04-15T10:36:42.970Z,50.53
2017-04-15T10:37:42.051Z,51.90
2017-04-15T10:38:41.139Z,57.88
2017-04-15T10:39:40.203Z,49.30
2017-04-15T10:40:40.038Z,53.68
2017-04-15T10:41:39.110Z,33.72
2017-04-15T10:42:38.205Z,45.72
2017-04-15T10:43:37.286Z,38.95
2017-04-15T10:44:36.370Z,42.08
2017-04-15T10:45:35.462Z,30.90
2017-04-15T10:46:34.526Z,25.92
2017-04-15T10:47:34.285Z,27.83
2017-04-15T10:48:33.335Z,29.70
2017-04-15T10:49:32.674Z,26.87
2017-04-15T10:50:32.010Z,24.55
2017-04-15T10:51:31.086Z,18.00
2017-04-15T10:52:30.150Z,23.95
2017-04-15T10:53:29.987Z,18.90
2017-04-15T10:54:29.061Z,25.65
2017-04-15T10:55:28.458Z,24.55
2017-04-15T10:56:27.562Z,21.38
2017-04-15T10:57:26.642Z,28.45
2017-04-15T10:58:25.955Z,34.95
2017-04-15T10:59:25.036Z,30.67
2017-04-15T11:00:24.090Z,30.27
2017-04-15T11:01:23.154Z,23.97
2017-04-15T11:02:22.262Z,30.63
2017-04-15T11:03:21.375Z,31.77
2017-04-15T11:04:20.511Z,22.32
2017-04-15T11:05:19.572Z,27.58
2017-04-15T11:06:18.635Z,32.85
2017-04-15T11:07:17.982Z,35.17
2017-04-15T11:08:18.184Z,34.50
2017-04-15T11:09:17.424Z,25.48
2017-04-15T11:10:16.529Z,30.55
2017-04-15T11:11:15.607Z,37.13
2017-04-15T11:12:14.789Z,25.37
2017-04-15T11:13:13.878Z,21.77
2017-04-15T11:14:12.994Z,27.27
2017-04-15T11:15:12.962Z,33.37
2017-04-15T11:16:12.053Z,31.88
2017-04-15T11:17:11.154Z,29.53
2017-04-15T11:18:10.222Z,37.48
2017-04-15T11:19:09.311Z,29.73
2017-04-15T11:20:08.410Z,25.65
2017-04-15T11:21:07.496Z,30.83
2017-04-15T11:22:06.666Z,35.85
2017-04-15T11:23:05.750Z,24.30
2017-04-15T11:24:04.822Z,28.98
2017-04-15T11:25:03.902Z,32.23
2017-04-15T11:26:02.994Z,24.63
2017-04-15T11:27:02.091Z,27.07
2017-04-15T11:28:01.155Z,26.02
2017-04-15T11:29:00.214Z,30.93
2017-04-15T11:29:59.282Z,25.63
2017-04-15T11:30:58.422Z,27.95
2017-04-15T11:31:57.542Z,28.90
2017-04-15T11:32:57.387Z,26.65
2017-04-15T11:33:56.458Z,25.60
2017-04-15T11:34:55.532Z,29.42
2017-04-15T11:35:54.612Z,29.92
2017-04-15T11:36:53.699Z,27.53
2017-04-15T11:37:52.914Z,34.20
2017-04-15T11:38:52.003Z,22.90
2017-04-15T11:39:51.083Z,29.50
2017-04-15T11:40:50.158Z,47.37
2017-04-15T11:41:49.232Z,40.12
2017-04-15T11:42:48.435Z,30.05
2017-04-15T11:43:47.556Z,24.83
2017-04-15T11:44:46.668Z,25.98
2017-04-15T11:45:46.490Z,25.77
2017-04-15T11:46:45.554Z,26.83
2017-04-15T11:47:44.640Z,32.45
2017-04-15T11:48:44.082Z,24.97
2017-04-15T11:49:43.170Z,20.33
2017-04-15T11:50:42.226Z,19.78
2017-04-15T11:51:41.290Z,24.40
2017-04-15T11:52:41.230Z,21.72
2017-04-15T11:53:40.307Z,26.25
2017-04-15T11:54:39.414Z,19.07
2017-04-15T11:55:38.486Z,28.25
2017-04-15T11:56:37.754Z,23.73
2017-04-15T11:57:36.896Z,16.85
2017-04-15T11:58:35.976Z,16.27
2017-04-15T11:59:35.354Z,16.12
2017-04-15T12:00:34.454Z,14.52
2017-04-15T12:01:33.526Z,17.82
2017-04-15T12:02:32.590Z,27.35
2017-04-15T12:03:31.715Z,27.18
2017-04-15T12:04:30.793Z,20.58
2017-04-15T12:05:30.184Z,20.70
2017-04-15T12:06:29.254Z,17.45
2017-04-15T12:07:28.320Z,23.42
2017-04-15T12:08:27.396Z,21.23
2017-04-15T12:09:26.465Z,17.60
2017-04-15T12:10:26.278Z,20.15
2017-04-15T12:11:25.534Z,25.17
2017-04-15T12:12:24.610Z,24.98
2017-04-15T12:13:23.732Z,30.98
2017-04-15T12:14:22.809Z,23.62
2017-04-15T12:15:21.879Z,24.55
2017-04-15T12:16:21.702Z,27.23
2017-04-15T12:17:20.331Z,18.53
2017-04-15T12:18:19.679Z,20.53
2017-04-15T12:19:18.806Z,18.87
2017-04-15T12:20:17.902Z,22.95
2017-04-15T12:21:16.979Z,16.87
2017-04-15T12:22:16.066Z,19.40
2017-04-15T12:23:15.197Z,17.07
2017-04-15T12:24:14.690Z,16.55
2017-04-15T12:25:13.803Z,14.65
2017-04-15T12:26:12.874Z,14.73
2017-04-15T12:27:11.958Z,12.85
2017-04-15T12:28:11.029Z,18.25
2017-04-15T12:29:10.150Z,17.55
2017-04-15T12:30:09.961Z,16.55
2017-04-15T12:31:09.043Z,18.33
2017-04-15T12:32:08.158Z,25.90
2017-04-15T12:33:07.238Z,17.85
2017-04-15T12:34:06.330Z,17.43
2017-04-15T12:35:05.479Z,13.60
2017-04-15T12:36:05.303Z,14.78
2017-04-15T12:37:04.392Z,14.33
2017-04-15T12:38:03.478Z,15.52
2017-04-15T12:39:02.633Z,14.52
2017-04-15T12:40:01.691Z,12.57
2017-04-15T12:41:00.886Z,8.60
2017-04-15T12:41:59.967Z,13.02
2017-04-15T12:42:59.044Z,11.45